createdAt,value
2024-05-09T00:00:06.368Z,4.20
2024-05-09T00:01:03.923Z,3.50
2024-05-09T00:02:03.824Z,3.90
2024-05-09T00:03:03.854Z,4.90
2024-05-09T00:04:03.994Z,24.60
2024-05-09T00:05:03.800Z,149.90
2024-05-09T00:06:03.916Z,98.30
2024-05-09T00:07:03.767Z,63.30
2024-05-09T00:08:03.880Z,47.70
2024-05-09T00:09:03.722Z,14.70
2024-05-09T00:10:05.620Z,39.60
2024-05-09T00:11:03.997Z,32.60
2024-05-09T00:12:03.866Z,94.10
2024-05-09T00:13:03.701Z,40.80
2024-05-09T00:14:03.740Z,21.70
2024-05-09T00:15:03.654Z,17.40
2024-05-09T00:16:03.690Z,14.80
2024-05-09T00:17:03.661Z,11.30
2024-05-09T00:18:04.184Z,18.60
2024-05-09T00:19:03.743Z,18.30
2024-05-09T00:20:09.074Z,14.80
2024-05-09T00:21:03.733Z,11.40
2024-05-09T00:22:03.640Z,40.50
2024-05-09T00:23:03.588Z,18.50
2024-05-09T00:24:03.580Z,12.00
2024-05-09T00:25:03.559Z,6.70
2024-05-09T00:26:03.652Z,5.00
2024-05-09T00:27:03.694Z,5.10
2024-05-09T00:28:03.527Z,7.50
2024-05-09T00:29:03.611Z,5.50
2024-05-09T00:30:04.262Z,5.40
2024-05-09T00:31:03.519Z,5.50
2024-05-09T00:32:03.658Z,5.00
2024-05-09T00:33:04.630Z,5.50
2024-05-09T00:34:03.606Z,4.50
2024-05-09T00:35:03.466Z,5.80
2024-05-09T00:36:03.449Z,5.10
2024-05-09T00:37:03.453Z,5.60
2024-05-09T00:38:03.769Z,4.70
2024-05-09T00:39:03.448Z,6.00
2024-05-09T00:40:03.646Z,4.90
2024-05-09T00:41:03.482Z,6.00
2024-05-09T00:42:03.410Z,5.50
2024-05-09T00:43:03.383Z,6.20
2024-05-09T00:44:03.435Z,6.70
2024-05-09T00:45:03.378Z,4.90
2024-05-09T00:46:03.367Z,5.90
2024-05-09T00:47:03.456Z,5.90
2024-05-09T00:48:03.646Z,5.00
2024-05-09T00:49:03.403Z,6.60
2024-05-09T00:50:04.302Z,5.60
2024-05-09T00:51:03.349Z,7.00
2024-05-09T00:52:03.313Z,5.50
2024-05-09T00:53:03.390Z,5.00
2024-05-09T00:54:03.272Z,5.50
2024-05-09T00:55:03.286Z,5.40
2024-05-09T00:56:03.289Z,7.40
2024-05-09T00:57:03.278Z,4.80
2024-05-09T00:58:03.244Z,5.90
2024-05-09T00:59:03.294Z,7.90
2024-05-09T01:00:04.717Z,5.80
2024-05-09T01:01:03.292Z,6.40
2024-05-09T01:02:03.378Z,4.90
2024-05-09T01:03:03.581Z,5.70
2024-05-09T01:04:03.305Z,7.80
2024-05-09T01:05:03.259Z,5.60
2024-05-09T01:06:03.238Z,5.60
2024-05-09T01:07:03.184Z,5.60
2024-05-09T01:08:03.405Z,6.90
2024-05-09T01:09:03.122Z,5.40
2024-05-09T01:10:04.222Z,5.20
2024-05-09T01:11:03.181Z,6.20
2024-05-09T01:12:03.304Z,4.50
2024-05-09T01:13:03.120Z,6.60
2024-05-09T01:14:03.119Z,6.10
2024-05-09T01:15:03.071Z,4.60
2024-05-09T01:16:03.067Z,6.20
2024-05-09T01:17:03.149Z,5.90
2024-05-09T01:18:03.266Z,5.70
2024-05-09T01:19:03.348Z,5.30
2024-05-09T01:20:04.244Z,6.20
2024-05-09T01:21:03.032Z,7.50
2024-05-09T01:22:03.014Z,5.30
2024-05-09T01:23:03.006Z,6.10
2024-05-09T01:24:02.997Z,5.50
2024-05-09T01:25:02.982Z,6.40
2024-05-09T01:26:03.094Z,5.20
2024-05-09T01:27:02.957Z,6.60
2024-05-09T01:28:02.941Z,5.40
2024-05-09T01:29:02.939Z,5.20
2024-05-09T01:30:05.355Z,5.30
2024-05-09T01:31:02.910Z,7.20
2024-05-09T01:32:03.016Z,5.70
2024-05-09T01:33:03.381Z,6.90
2024-05-09T01:34:02.998Z,7.60
2024-05-09T01:35:02.977Z,5.30
2024-05-09T01:36:02.880Z,4.80
2024-05-09T01:37:02.879Z,6.80
2024-05-09T01:38:02.953Z,6.60
2024-05-09T01:39:02.858Z,5.20
2024-05-09T01:40:03.553Z,6.30
2024-05-09T01:41:02.889Z,4.80
2024-05-09T01:42:02.823Z,5.80
2024-05-09T01:43:02.788Z,7.00
2024-05-09T01:44:02.800Z,7.10
2024-05-09T01:45:02.771Z,5.70
2024-05-09T01:46:02.771Z,5.50
2024-05-09T01:47:02.839Z,6.20
2024-05-09T01:48:03.308Z,6.30
2024-05-09T01:49:02.850Z,11.30
2024-05-09T01:50:03.496Z,66.20
2024-05-09T01:51:02.746Z,41.10
2024-05-09T01:52:02.734Z,32.50
2024-05-09T01:53:02.752Z,34.20
2024-05-09T01:54:02.681Z,31.50
2024-05-09T01:55:05.566Z,16.20
2024-05-09T01:56:02.745Z,9.00
2024-05-09T01:57:02.694Z,6.80
2024-05-09T01:58:02.659Z,79.70
2024-05-09T01:59:02.651Z,61.40
2024-05-09T02:00:03.012Z,36.20
2024-05-09T02:01:02.638Z,11.70
2024-05-09T02:02:02.788Z,6.40
2024-05-09T02:03:02.801Z,7.00
2024-05-09T02:04:02.982Z,6.10
2024-05-09T02:05:02.647Z,6.00
2024-05-09T02:06:02.722Z,6.60
2024-05-09T02:07:02.565Z,4.80
2024-05-09T02:08:02.591Z,6.00
2024-05-09T02:09:02.529Z,7.50
2024-05-09T02:10:06.476Z,6.60
2024-05-09T02:11:02.538Z,4.40
2024-05-09T02:12:02.658Z,6.10
2024-05-09T02:13:02.510Z,5.90
2024-05-09T02:14:02.509Z,5.20
2024-05-09T02:15:02.469Z,5.60
2024-05-09T02:16:02.460Z,5.30
2024-05-09T02:17:02.499Z,4.40
2024-05-09T02:18:02.660Z,7.00
2024-05-09T02:19:02.599Z,6.10
2024-05-09T02:20:02.746Z,6.30
2024-05-09T02:21:02.550Z,5.40
2024-05-09T02:22:02.389Z,5.00
2024-05-09T02:23:02.486Z,6.00
2024-05-09T02:24:02.382Z,6.10
2024-05-09T02:25:02.359Z,4.80
2024-05-09T02:26:02.395Z,5.50
2024-05-09T02:27:02.344Z,7.60
2024-05-09T02:28:02.478Z,5.20
2024-05-09T02:29:02.384Z,4.80
2024-05-09T02:30:02.386Z,5.40
2024-05-09T02:31:02.314Z,5.80
2024-05-09T02:32:02.424Z,6.20
2024-05-09T02:33:02.498Z,5.80
2024-05-09T02:34:02.534Z,7.20
2024-05-09T02:35:02.387Z,6.30
2024-05-09T02:36:02.264Z,5.90
2024-05-09T02:37:02.298Z,6.30
2024-05-09T02:38:02.344Z,4.80
2024-05-09T02:39:02.223Z,6.30
2024-05-09T02:40:02.554Z,5.80
2024-05-09T02:41:02.284Z,6.00
2024-05-09T02:42:02.199Z,7.00
2024-05-09T02:43:02.226Z,7.00
2024-05-09T02:44:02.196Z,6.10
2024-05-09T02:45:02.160Z,5.50
2024-05-09T02:46:02.138Z,5.80
2024-05-09T02:47:02.174Z,7.50
2024-05-09T02:48:02.684Z,5.60
2024-05-09T02:49:02.271Z,5.40
2024-05-09T02:50:02.154Z,6.00
2024-05-09T02:51:02.325Z,6.60
2024-05-09T02:52:02.076Z,6.50
2024-05-09T02:53:02.150Z,5.20
2024-05-09T02:54:02.105Z,6.20
2024-05-09T02:55:02.072Z,5.80
2024-05-09T02:56:02.108Z,6.50
2024-05-09T02:57:02.022Z,5.50
2024-05-09T02:58:02.064Z,5.70
2024-05-09T02:59:02.039Z,7.70
2024-05-09T03:00:02.024Z,7.00
2024-05-09T03:01:02.104Z,5.80
2024-05-09T03:02:02.777Z,8.00
2024-05-09T03:03:02.239Z,5.20
2024-05-09T03:04:02.113Z,6.40
2024-05-09T03:05:01.987Z,5.90
2024-05-09T03:06:01.947Z,6.80
2024-05-09T03:07:01.931Z,5.80
2024-05-09T03:08:01.963Z,5.80
2024-05-09T03:09:01.921Z,7.10
2024-05-09T03:10:01.899Z,5.70
2024-05-09T03:11:01.971Z,5.30
2024-05-09T03:12:01.961Z,5.50
2024-05-09T03:13:01.875Z,7.00
2024-05-09T03:14:01.944Z,5.80
2024-05-09T03:15:01.844Z,5.80
2024-05-09T03:16:01.859Z,5.90
2024-05-09T03:17:01.903Z,4.90
2024-05-09T03:18:02.120Z,5.00
2024-05-09T03:19:01.886Z,5.90
2024-05-09T03:20:01.861Z,6.20
2024-05-09T03:21:01.855Z,4.70
2024-05-09T03:22:01.796Z,6.30
2024-05-09T03:23:01.825Z,5.90
2024-05-09T03:24:01.787Z,5.20
2024-05-09T03:25:01.747Z,5.60
2024-05-09T03:26:01.806Z,5.70
2024-05-09T03:27:01.734Z,6.70
2024-05-09T03:28:01.954Z,4.40
2024-05-09T03:29:01.762Z,8.50
2024-05-09T03:30:02.018Z,5.30
2024-05-09T03:31:01.689Z,6.30
2024-05-09T03:32:01.780Z,4.30
2024-05-09T03:33:01.960Z,6.00
2024-05-09T03:34:01.884Z,4.90
2024-05-09T03:35:01.746Z,6.20
2024-05-09T03:36:01.639Z,5.20
2024-05-09T03:37:01.625Z,5.90
2024-05-09T03:38:01.658Z,5.40
2024-05-09T03:39:01.606Z,5.10
2024-05-09T03:40:01.611Z,4.50
2024-05-09T03:41:01.623Z,6.00
2024-05-09T03:42:01.619Z,6.00
2024-05-09T03:43:01.577Z,4.50
2024-05-09T03:44:01.581Z,5.50
2024-05-09T03:45:01.581Z,6.00
2024-05-09T03:46:01.548Z,5.60
2024-05-09T03:47:01.560Z,5.20
2024-05-09T03:48:01.655Z,5.10
2024-05-09T03:49:01.603Z,6.20
2024-05-09T03:50:01.574Z,5.60
2024-05-09T03:51:01.524Z,6.10
2024-05-09T03:52:01.470Z,6.50
2024-05-09T03:53:01.555Z,6.60
2024-05-09T03:54:01.449Z,5.30
2024-05-09T03:55:01.498Z,6.20
2024-05-09T03:56:01.538Z,6.30
2024-05-09T03:57:01.424Z,7.00
2024-05-09T03:58:01.427Z,6.50
2024-05-09T03:59:01.455Z,8.40
2024-05-09T04:00:01.438Z,7.40
2024-05-09T04:01:01.562Z,5.30
2024-05-09T04:02:01.458Z,8.80
2024-05-09T04:03:01.691Z,5.30
2024-05-09T04:04:01.374Z,6.40
2024-05-09T04:05:01.459Z,5.90
2024-05-09T04:06:01.354Z,5.20
2024-05-09T04:07:01.334Z,5.10
2024-05-09T04:08:01.518Z,6.00
2024-05-09T04:09:01.299Z,6.00
2024-05-09T04:10:01.306Z,6.50
2024-05-09T04:11:01.490Z,5.70
2024-05-09T04:12:01.436Z,7.90
2024-05-09T04:13:01.389Z,5.90
2024-05-09T04:14:01.280Z,5.10
2024-05-09T04:15:01.249Z,8.80
2024-05-09T04:16:01.243Z,7.20
2024-05-09T04:17:01.263Z,5.60
2024-05-09T04:18:02.149Z,4.80
2024-05-09T04:19:01.369Z,5.70
2024-05-09T04:20:01.330Z,5.60
2024-05-09T04:21:01.302Z,5.60
2024-05-09T04:22:01.208Z,5.30
2024-05-09T04:23:01.222Z,6.00
2024-05-09T04:24:01.157Z,5.00
2024-05-09T04:25:01.146Z,8.10
2024-05-09T04:26:01.225Z,6.70
2024-05-09T04:27:01.121Z,5.30
2024-05-09T04:28:01.194Z,5.30
2024-05-09T04:29:01.186Z,6.20
2024-05-09T04:30:01.096Z,6.50
2024-05-09T04:31:01.081Z,4.70
2024-05-09T04:32:01.140Z,7.90
2024-05-09T04:33:01.268Z,6.60
2024-05-09T04:34:01.149Z,5.60
2024-05-09T04:35:01.126Z,7.10
2024-05-09T04:36:01.038Z,4.80
2024-05-09T04:37:01.035Z,5.70
2024-05-09T04:38:01.062Z,13.60
2024-05-09T04:39:00.995Z,13.50
2024-05-09T04:40:00.990Z,9.60
2024-05-09T04:41:01.039Z,19.70
2024-05-09T04:42:00.980Z,11.60
2024-05-09T04:43:01.035Z,7.70
2024-05-09T04:44:01.016Z,7.00
2024-05-09T04:45:00.971Z,6.70
2024-05-09T04:46:00.928Z,7.80
2024-05-09T04:47:00.933Z,5.30
2024-05-09T04:48:01.675Z,4.70
2024-05-09T04:49:01.147Z,21.00
2024-05-09T04:50:00.905Z,37.50
2024-05-09T04:51:00.908Z,10.20
2024-05-09T04:52:00.868Z,9.00
2024-05-09T04:53:00.893Z,7.90
2024-05-09T04:54:00.859Z,17.10
2024-05-09T04:55:00.830Z,24.70
2024-05-09T04:56:00.860Z,21.50
2024-05-09T04:57:00.809Z,11.50
2024-05-09T04:58:00.831Z,9.60
2024-05-09T04:59:00.834Z,10.70
2024-05-09T05:00:00.816Z,11.20
2024-05-09T05:01:00.791Z,11.40
2024-05-09T05:02:00.903Z,7.10
2024-05-09T05:03:00.930Z,8.50
2024-05-09T05:04:00.952Z,8.30
2024-05-09T05:05:00.977Z,7.30
2024-05-09T05:06:00.785Z,10.10
2024-05-09T05:07:02.880Z,9.10
2024-05-09T05:08:00.797Z,6.40
2024-05-09T05:09:00.705Z,7.80
2024-05-09T05:10:00.692Z,7.90
2024-05-09T05:11:00.874Z,6.90
2024-05-09T05:12:00.843Z,7.20
2024-05-09T05:13:00.641Z,7.00
2024-05-09T05:14:00.772Z,7.50
2024-05-09T05:15:00.652Z,16.60
2024-05-09T05:16:00.639Z,24.00
2024-05-09T05:17:00.684Z,8.80
2024-05-09T05:18:00.861Z,9.00
2024-05-09T05:19:00.629Z,8.50
2024-05-09T05:20:00.773Z,9.90
2024-05-09T05:21:00.635Z,10.10
2024-05-09T05:22:00.557Z,7.80
2024-05-09T05:23:00.983Z,13.20
2024-05-09T05:24:00.537Z,52.20
2024-05-09T05:25:00.514Z,15.50
2024-05-09T05:26:00.562Z,9.30
2024-05-09T05:27:00.527Z,7.10
2024-05-09T05:28:00.497Z,7.30
2024-05-09T05:29:00.553Z,7.80
2024-05-09T05:30:00.519Z,7.80
2024-05-09T05:31:00.470Z,10.60
2024-05-09T05:32:00.670Z,8.50
2024-05-09T05:33:00.659Z,11.80
2024-05-09T05:34:00.492Z,13.00
2024-05-09T05:35:00.453Z,25.50
2024-05-09T05:36:00.405Z,15.20
2024-05-09T05:37:00.463Z,9.10
2024-05-09T05:38:00.476Z,11.50
2024-05-09T05:39:00.378Z,7.10
2024-05-09T05:40:00.386Z,7.50
2024-05-09T05:41:00.461Z,8.20
2024-05-09T05:42:01.191Z,8.30
2024-05-09T05:43:00.360Z,8.40
2024-05-09T05:44:00.364Z,10.90
2024-05-09T05:45:00.344Z,7.80
2024-05-09T05:46:00.317Z,7.70
2024-05-09T05:47:00.361Z,7.10
2024-05-09T05:48:00.648Z,6.60
2024-05-09T05:49:00.410Z,8.00
2024-05-09T05:50:00.456Z,7.20
2024-05-09T05:51:02.670Z,7.10
2024-05-09T05:52:00.283Z,7.90
2024-05-09T05:53:00.284Z,7.80
2024-05-09T05:54:00.254Z,8.00
2024-05-09T05:55:00.242Z,8.80
2024-05-09T05:56:00.246Z,8.30
2024-05-09T05:57:00.249Z,6.80
2024-05-09T05:58:00.194Z,7.60
2024-05-09T05:59:00.215Z,8.90
2024-05-09T06:00:00.205Z,7.40
2024-05-09T06:01:00.211Z,8.10
2024-05-09T06:02:00.239Z,7.90
2024-05-09T06:03:00.252Z,8.00
2024-05-09T06:04:00.252Z,8.10
2024-05-09T06:05:00.314Z,7.70
2024-05-09T06:06:00.242Z,8.30
2024-05-09T06:07:00.146Z,7.40
2024-05-09T06:08:00.333Z,7.30
2024-05-09T06:09:00.103Z,8.80
2024-05-09T06:10:00.155Z,6.30
2024-05-09T06:11:00.093Z,8.20
2024-05-09T06:12:00.161Z,6.80
2024-05-09T06:13:00.040Z,8.80
2024-05-09T06:14:00.110Z,9.50
2024-05-09T06:15:00.100Z,7.80
2024-05-09T06:16:00.008Z,7.40
2024-05-09T06:17:00.041Z,8.60
2024-05-09T06:18:00.270Z,10.00
2024-05-09T06:19:00.038Z,7.00
2024-05-09T06:20:00.060Z,7.10
2024-05-09T06:21:00.009Z,7.70
2024-05-09T06:21:59.949Z,8.40
2024-05-09T06:23:00.011Z,6.90
2024-05-09T06:24:00.410Z,7.40
2024-05-09T06:24:59.950Z,7.80
2024-05-09T06:25:59.986Z,6.80
2024-05-09T06:26:59.911Z,7.50
2024-05-09T06:27:59.902Z,8.50
2024-05-09T06:28:59.963Z,7.30
2024-05-09T06:29:59.879Z,6.10
2024-05-09T06:30:59.892Z,8.00
2024-05-09T06:32:00.353Z,7.90
2024-05-09T06:32:59.988Z,7.90
2024-05-09T06:33:59.950Z,6.60
2024-05-09T06:34:59.882Z,9.60
2024-05-09T06:35:59.891Z,7.30
2024-05-09T06:36:59.804Z,8.10
2024-05-09T06:37:59.849Z,7.60
2024-05-09T06:38:59.801Z,7.90
2024-05-09T06:39:59.771Z,7.40
2024-05-09T06:40:59.844Z,7.30
2024-05-09T06:41:59.766Z,9.00
2024-05-09T06:42:59.758Z,5.90
2024-05-09T06:43:59.782Z,7.50
2024-05-09T06:44:59.752Z,7.80
2024-05-09T06:45:59.708Z,7.10
2024-05-09T06:47:00.266Z,7.70
2024-05-09T06:48:00.045Z,7.50
2024-05-09T06:48:59.910Z,6.40
2024-05-09T06:49:59.729Z,7.20
2024-05-09T06:50:59.699Z,8.40
2024-05-09T06:51:59.659Z,9.50
2024-05-09T06:52:59.699Z,7.90
2024-05-09T06:53:59.636Z,10.10
2024-05-09T06:54:59.627Z,7.10
2024-05-09T06:55:59.648Z,9.90
2024-05-09T06:56:59.610Z,10.40
2024-05-09T06:57:59.613Z,9.70
2024-05-09T06:58:59.620Z,8.30
2024-05-09T06:59:59.610Z,7.90
2024-05-09T07:00:59.600Z,9.40
2024-05-09T07:01:59.625Z,7.10
2024-05-09T07:03:01.657Z,8.10
2024-05-09T07:03:59.664Z,8.50
2024-05-09T07:04:59.612Z,7.90
2024-05-09T07:05:59.542Z,7.30
2024-05-09T07:06:59.511Z,7.80
2024-05-09T07:07:59.521Z,10.50
2024-05-09T07:08:59.496Z,6.80
2024-05-09T07:09:59.475Z,8.20
2024-05-09T07:10:59.554Z,9.30
2024-05-09T07:11:59.569Z,9.50
2024-05-09T07:12:59.448Z,7.90
2024-05-09T07:13:59.551Z,8.10
2024-05-09T07:14:59.425Z,7.80
2024-05-09T07:15:59.397Z,8.10
2024-05-09T07:16:59.568Z,7.70
2024-05-09T07:17:59.490Z,10.20
2024-05-09T07:18:59.554Z,7.60
2024-05-09T07:19:59.412Z,7.70
2024-05-09T07:20:59.395Z,9.70
2024-05-09T07:21:59.350Z,8.20
2024-05-09T07:22:59.430Z,8.90
2024-05-09T07:23:59.328Z,8.50
2024-05-09T07:24:59.323Z,7.50
2024-05-09T07:25:59.358Z,9.40
2024-05-09T07:26:59.301Z,6.90
2024-05-09T07:27:59.277Z,9.50
2024-05-09T07:28:59.346Z,8.30
2024-05-09T07:29:59.267Z,7.60
2024-05-09T07:30:59.287Z,8.20
2024-05-09T07:31:59.271Z,7.70
2024-05-09T07:32:59.446Z,7.00
2024-05-09T07:33:59.320Z,8.40
2024-05-09T07:34:59.264Z,10.10
2024-05-09T07:35:59.230Z,6.90
2024-05-09T07:36:59.194Z,7.00
2024-05-09T07:37:59.199Z,7.70
2024-05-09T07:38:59.183Z,8.80
2024-05-09T07:39:59.175Z,9.20
2024-05-09T07:40:59.282Z,7.70
2024-05-09T07:41:59.168Z,8.40
2024-05-09T07:42:59.165Z,8.40
2024-05-09T07:43:59.176Z,7.70
2024-05-09T07:45:11.182Z,7.00
2024-05-09T07:46:23.416Z,7.00
2024-05-09T07:48:29.100Z,7.90
2024-05-09T07:52:22.594Z,8.00
2024-05-09T07:53:42.091Z,7.60
2024-05-09T07:53:53.407Z,9.10
2024-05-09T07:54:44.957Z,7.10
2024-05-09T07:55:44.938Z,7.70
2024-05-09T07:56:44.947Z,7.60
2024-05-09T07:57:44.796Z,6.30
2024-05-09T07:58:44.755Z,8.00
2024-05-09T07:59:44.734Z,5.80
2024-05-09T08:00:44.786Z,7.90
2024-05-09T08:01:44.820Z,6.20
2024-05-09T08:02:44.738Z,6.50
2024-05-09T08:03:44.979Z,6.20
2024-05-09T08:04:44.807Z,7.10
2024-05-09T08:05:44.806Z,7.40
2024-05-09T08:06:44.700Z,6.80
2024-05-09T08:07:44.651Z,7.50
2024-05-09T08:08:44.669Z,8.20
2024-05-09T08:09:44.662Z,8.50
2024-05-09T08:10:44.801Z,7.50
2024-05-09T08:11:44.696Z,9.10
2024-05-09T08:12:44.622Z,7.10
2024-05-09T08:13:44.609Z,7.50
2024-05-09T08:14:44.587Z,8.20
2024-05-09T08:15:44.762Z,6.80
2024-05-09T08:16:44.574Z,8.60
2024-05-09T08:17:44.649Z,8.40
2024-05-09T08:18:44.676Z,8.00
2024-05-09T08:19:44.638Z,6.40
2024-05-09T08:20:44.505Z,6.10
2024-05-09T08:21:44.557Z,6.00
2024-05-09T08:22:44.520Z,6.60
2024-05-09T08:23:44.503Z,8.90
2024-05-09T08:24:44.518Z,6.80
2024-05-09T08:25:44.487Z,6.80
2024-05-09T08:26:44.453Z,7.00
2024-05-09T08:27:44.511Z,6.60
2024-05-09T08:28:44.457Z,9.90
2024-05-09T08:29:44.488Z,6.10
2024-05-09T08:30:44.702Z,7.60
2024-05-09T08:31:44.623Z,5.50
2024-05-09T08:32:44.567Z,7.10
2024-05-09T08:33:44.675Z,6.20
2024-05-09T08:34:44.408Z,6.10
2024-05-09T08:35:44.435Z,5.80
2024-05-09T08:36:44.397Z,8.20
2024-05-09T08:37:44.365Z,8.90
2024-05-09T08:38:44.332Z,10.50
2024-05-09T08:39:44.402Z,15.40
2024-05-09T08:40:44.556Z,15.60
2024-05-09T08:41:44.312Z,8.00
2024-05-09T08:42:44.391Z,7.30
2024-05-09T08:43:44.323Z,6.30
2024-05-09T08:44:44.283Z,5.60
2024-05-09T08:45:45.419Z,5.50
2024-05-09T08:46:44.274Z,6.90
2024-05-09T08:47:44.335Z,10.90
2024-05-09T08:48:44.529Z,16.20
2024-05-09T08:49:44.271Z,12.80
2024-05-09T08:50:45.415Z,8.00
2024-05-09T08:51:44.284Z,7.20
2024-05-09T08:52:44.207Z,6.60
2024-05-09T08:53:44.668Z,5.70
2024-05-09T08:54:44.243Z,6.50
2024-05-09T08:55:44.655Z,5.80
2024-05-09T08:56:44.176Z,7.00
2024-05-09T08:57:44.204Z,7.60
2024-05-09T08:58:44.190Z,6.60
2024-05-09T08:59:44.155Z,6.50
2024-05-09T09:00:44.553Z,5.30
2024-05-09T09:01:44.278Z,7.30
2024-05-09T09:02:44.572Z,7.30
2024-05-09T09:03:44.264Z,9.10
2024-05-09T09:04:44.280Z,6.40
2024-05-09T09:05:44.126Z,7.70
2024-05-09T09:06:44.275Z,6.80
2024-05-09T09:07:44.057Z,7.10
2024-05-09T09:08:44.118Z,9.00
2024-05-09T09:09:44.342Z,6.70
2024-05-09T09:10:44.174Z,7.30
2024-05-09T09:11:44.041Z,6.70
2024-05-09T09:12:44.094Z,7.00
2024-05-09T09:13:43.988Z,6.40
2024-05-09T09:14:44.021Z,6.30
2024-05-09T09:15:44.052Z,8.20
2024-05-09T09:16:43.949Z,7.20
2024-05-09T09:17:44.056Z,7.50
2024-05-09T09:18:44.180Z,12.00
2024-05-09T09:19:43.993Z,8.40
2024-05-09T09:20:44.121Z,8.10
2024-05-09T09:21:44.014Z,6.40
2024-05-09T09:22:43.898Z,6.70
2024-05-09T09:23:43.887Z,7.20
2024-05-09T09:24:43.984Z,7.30
2024-05-09T09:25:43.892Z,7.90
2024-05-09T09:26:43.863Z,6.50
2024-05-09T09:27:43.927Z,7.00
2024-05-09T09:28:43.956Z,7.90
2024-05-09T09:29:43.849Z,6.80
2024-05-09T09:30:43.894Z,7.20
2024-05-09T09:31:43.871Z,8.00
2024-05-09T09:32:43.870Z,8.00
2024-05-09T09:33:44.116Z,6.20
2024-05-09T09:34:43.833Z,12.20
2024-05-09T09:35:43.782Z,7.20
2024-05-09T09:36:43.875Z,7.60
2024-05-09T09:37:43.756Z,6.30
2024-05-09T09:38:43.763Z,5.40
2024-05-09T09:39:43.804Z,6.40
2024-05-09T09:40:48.272Z,6.50
2024-05-09T09:41:43.707Z,7.40
2024-05-09T09:42:43.755Z,8.90
2024-05-09T09:43:43.689Z,5.90
2024-05-09T09:44:47.739Z,7.90
2024-05-09T09:45:43.925Z,6.60
2024-05-09T09:46:43.667Z,6.20
2024-05-09T09:47:43.827Z,7.30
2024-05-09T09:48:43.709Z,6.90
2024-05-09T09:49:43.719Z,7.10
2024-05-09T09:50:43.645Z,8.90
2024-05-09T09:51:43.810Z,5.90
2024-05-09T09:52:43.629Z,7.30
2024-05-09T09:53:43.591Z,6.80
2024-05-09T09:54:43.625Z,7.90
2024-05-09T09:55:43.563Z,7.40
2024-05-09T09:56:43.562Z,5.90
2024-05-09T09:57:43.744Z,7.40
2024-05-09T09:58:43.560Z,8.40
2024-05-09T09:59:43.572Z,6.80
2024-05-09T10:00:44.015Z,6.20
2024-05-09T10:01:43.684Z,6.60
2024-05-09T10:02:43.566Z,7.60
2024-05-09T10:03:43.696Z,7.60
2024-05-09T10:04:43.596Z,8.10
2024-05-09T10:05:46.302Z,6.60
2024-05-09T10:06:43.520Z,6.10
2024-05-09T10:07:43.479Z,8.30
2024-05-09T10:08:43.451Z,6.50
2024-05-09T10:09:43.491Z,7.50
2024-05-09T10:10:43.763Z,6.30
2024-05-09T10:11:49.099Z,7.30
2024-05-09T10:12:43.420Z,6.60
2024-05-09T10:13:43.407Z,7.50
2024-05-09T10:14:43.385Z,6.40
2024-05-09T10:15:43.414Z,7.50
2024-05-09T10:16:43.371Z,6.00
2024-05-09T10:17:43.524Z,7.00
2024-05-09T10:18:43.560Z,6.90
2024-05-09T10:19:43.399Z,7.70
2024-05-09T10:20:43.338Z,8.80
2024-05-09T10:21:43.390Z,7.70
2024-05-09T10:22:43.318Z,7.20
2024-05-09T10:23:43.303Z,8.30
2024-05-09T10:24:43.338Z,5.70
2024-05-09T10:25:43.322Z,7.00
2024-05-09T10:26:43.255Z,8.10
2024-05-09T10:27:43.289Z,6.20
2024-05-09T10:28:43.254Z,7.40
2024-05-09T10:29:43.232Z,6.90
2024-05-09T10:30:43.452Z,6.40
2024-05-09T10:31:43.385Z,7.10
2024-05-09T10:32:43.358Z,7.20
2024-05-09T10:33:43.388Z,8.30
2024-05-09T10:34:43.349Z,8.00
2024-05-09T10:35:43.194Z,7.50
2024-05-09T10:36:43.258Z,11.00
2024-05-09T10:37:43.154Z,9.20
2024-05-09T10:38:43.269Z,10.20
2024-05-09T10:39:43.254Z,15.20
2024-05-09T10:40:43.188Z,8.20
2024-05-09T10:41:43.130Z,9.30
2024-05-09T10:42:43.200Z,7.80
2024-05-09T10:43:43.103Z,8.30
2024-05-09T10:44:43.087Z,9.10
2024-05-09T10:45:43.108Z,8.40
2024-05-09T10:46:43.058Z,7.50
2024-05-09T10:47:43.198Z,7.40
2024-05-09T10:48:43.251Z,7.00
2024-05-09T10:49:43.081Z,7.30
2024-05-09T10:50:43.083Z,7.60
2024-05-09T10:51:43.092Z,8.70
2024-05-09T10:52:43.037Z,7.70
2024-05-09T10:53:43.128Z,7.40
2024-05-09T10:54:43.006Z,9.00
2024-05-09T10:55:43.001Z,7.50
2024-05-09T10:56:43.007Z,7.30
2024-05-09T10:57:43.059Z,8.10
2024-05-09T10:58:43.074Z,7.70
2024-05-09T10:59:42.922Z,7.50
2024-05-09T11:01:43.108Z,7.40
2024-05-09T11:02:43.239Z,7.30
2024-05-09T11:03:43.230Z,7.20
2024-05-09T11:04:43.073Z,6.10
2024-05-09T11:05:43.243Z,7.80
2024-05-09T11:06:42.936Z,6.00
2024-05-09T11:07:42.874Z,6.50
2024-05-09T11:08:42.839Z,6.80
2024-05-09T11:09:42.903Z,7.10
2024-05-09T11:10:43.033Z,8.10
2024-05-09T11:11:42.849Z,7.20
2024-05-09T11:12:42.881Z,7.60
2024-05-09T11:13:42.812Z,7.60
2024-05-09T11:14:42.790Z,7.80
2024-05-09T11:15:42.860Z,8.60
2024-05-09T11:16:42.788Z,8.20
2024-05-09T11:17:42.847Z,7.30
2024-05-09T11:18:42.935Z,7.70
2024-05-09T11:19:42.833Z,6.60
2024-05-09T11:20:42.827Z,7.10
2024-05-09T11:21:42.880Z,7.80
2024-05-09T11:22:42.712Z,9.10
2024-05-09T11:23:42.724Z,9.20
2024-05-09T11:24:42.760Z,8.20
2024-05-09T11:25:42.700Z,8.60
2024-05-09T11:26:42.689Z,6.70
2024-05-09T11:27:42.682Z,7.90
2024-05-09T11:28:42.678Z,8.40
2024-05-09T11:29:42.664Z,6.60
2024-05-09T11:30:42.702Z,7.20
2024-05-09T11:31:42.717Z,6.60
2024-05-09T11:32:42.779Z,6.70
2024-05-09T11:33:42.811Z,5.90
2024-05-09T11:34:42.813Z,6.40
2024-05-09T11:35:42.578Z,7.10
2024-05-09T11:36:42.725Z,5.60
2024-05-09T11:37:42.577Z,7.30
2024-05-09T11:38:42.581Z,4.80
2024-05-09T11:39:42.624Z,5.30
2024-05-09T11:40:42.717Z,5.50
2024-05-09T11:41:42.522Z,6.20
2024-05-09T11:42:42.585Z,5.90
2024-05-09T11:43:42.512Z,6.20
2024-05-09T11:44:42.510Z,6.00
2024-05-09T11:45:42.587Z,5.80
2024-05-09T11:46:42.487Z,5.40
2024-05-09T11:47:42.657Z,5.40
2024-05-09T11:48:42.680Z,5.10
2024-05-09T11:49:42.586Z,5.90
2024-05-09T11:50:42.512Z,4.80
2024-05-09T11:51:42.506Z,6.70
2024-05-09T11:52:42.402Z,5.90
2024-05-09T11:53:42.400Z,6.50
2024-05-09T11:54:42.435Z,8.40
2024-05-09T11:55:42.424Z,6.00
2024-05-09T11:56:42.422Z,4.90
2024-05-09T11:57:42.504Z,4.70
2024-05-09T11:58:42.377Z,5.80
2024-05-09T11:59:42.351Z,6.70
2024-05-09T12:00:42.459Z,5.20
2024-05-09T12:01:42.441Z,5.20
2024-05-09T12:02:42.393Z,5.20
2024-05-09T12:03:42.491Z,5.70
2024-05-09T12:04:42.619Z,5.10
2024-05-09T12:05:42.564Z,4.90
2024-05-09T12:06:42.356Z,5.50
2024-05-09T12:07:42.286Z,3.10
2024-05-09T12:08:42.271Z,4.10
2024-05-09T12:09:42.328Z,5.80
2024-05-09T12:10:42.476Z,5.10
2024-05-09T12:11:42.327Z,5.30
2024-05-09T12:12:42.337Z,4.70
2024-05-09T12:13:42.213Z,3.90
2024-05-09T12:14:42.215Z,6.10
2024-05-09T12:15:42.244Z,6.10
2024-05-09T12:16:42.348Z,5.50
2024-05-09T12:17:42.339Z,5.00
2024-05-09T12:18:42.277Z,6.10
2024-05-09T12:19:42.193Z,4.70
2024-05-09T12:20:42.203Z,4.20
2024-05-09T12:21:42.210Z,5.80
2024-05-09T12:22:42.123Z,4.40
2024-05-09T12:23:42.147Z,4.10
2024-05-09T12:24:42.175Z,4.30
2024-05-09T12:25:42.164Z,6.80
2024-05-09T12:26:42.093Z,6.60
2024-05-09T12:27:42.153Z,5.80
2024-05-09T12:28:42.108Z,5.20
2024-05-09T12:29:42.064Z,5.10
2024-05-09T12:30:42.314Z,6.40
2024-05-09T12:31:42.051Z,5.40
2024-05-09T12:32:42.138Z,6.10
2024-05-09T12:33:42.143Z,5.10
2024-05-09T12:34:42.109Z,6.20
2024-05-09T12:35:44.480Z,4.40
2024-05-09T12:36:42.114Z,5.50
2024-05-09T12:37:41.977Z,5.20
2024-05-09T12:38:41.992Z,6.50
2024-05-09T12:39:42.060Z,5.10
2024-05-09T12:40:42.327Z,5.00
2024-05-09T12:41:41.941Z,4.60
2024-05-09T12:42:42.082Z,5.60
2024-05-09T12:43:41.960Z,4.70
2024-05-09T12:44:41.948Z,5.50
2024-05-09T12:45:41.988Z,6.00
2024-05-09T12:46:41.897Z,6.00
2024-05-09T12:47:41.989Z,5.20
2024-05-09T12:48:42.040Z,4.70
2024-05-09T12:49:41.927Z,5.50
2024-05-09T12:50:42.278Z,4.70
2024-05-09T12:51:41.860Z,7.80
2024-05-09T12:52:41.856Z,7.80
2024-05-09T12:53:41.832Z,45.70
2024-05-09T12:54:41.867Z,25.50
2024-05-09T12:55:48.745Z,16.40
2024-05-09T12:56:41.807Z,7.10
2024-05-09T12:57:41.814Z,5.70
2024-05-09T12:58:41.799Z,6.50
2024-05-09T12:59:41.792Z,5.80
2024-05-09T13:00:41.891Z,5.60
2024-05-09T13:01:41.925Z,5.30
2024-05-09T13:02:41.893Z,4.30
2024-05-09T13:03:42.011Z,4.30
2024-05-09T13:04:41.859Z,6.00
2024-05-09T13:05:42.198Z,5.20
2024-05-09T13:06:41.706Z,4.10
2024-05-09T13:07:41.684Z,3.90
2024-05-09T13:08:41.717Z,5.40
2024-05-09T13:09:41.696Z,5.90
2024-05-09T13:10:41.942Z,15.10
2024-05-09T13:11:41.693Z,10.00
2024-05-09T13:12:41.652Z,5.70
2024-05-09T13:13:41.663Z,5.00
2024-05-09T13:14:41.640Z,4.50
2024-05-09T13:15:41.720Z,4.80
2024-05-09T13:16:41.697Z,4.60
2024-05-09T13:17:41.692Z,4.00
2024-05-09T13:18:41.716Z,5.20
2024-05-09T13:19:41.574Z,3.60